createdAt,value
2023-04-25T00:22:59.504Z,12.77
2023-04-25T00:26:01.415Z,12.89
2023-04-25T00:29:03.425Z,12.78
2023-04-25T00:32:05.394Z,12.69
2023-04-25T00:35:07.756Z,12.69
2023-04-25T00:38:10.004Z,12.82
2023-04-25T00:41:12.639Z,12.86
2023-04-25T00:44:17.926Z,12.88
2023-04-25T00:47:20.493Z,12.87
2023-04-25T00:50:22.700Z,12.65
2023-04-25T00:53:26.579Z,12.78
2023-04-25T00:56:28.737Z,12.72
2023-04-25T00:59:31.812Z,12.58
2023-04-25T01:02:38.299Z,12.59
2023-04-25T01:05:42.952Z,12.57
2023-04-25T01:08:44.887Z,12.62
2023-04-25T01:11:46.878Z,12.71
2023-04-25T01:14:48.934Z,12.53
2023-04-25T01:17:50.922Z,12.65
2023-04-25T01:20:53.786Z,12.61
2023-04-25T01:23:57.729Z,12.62
2023-04-25T01:27:01.522Z,12.59
2023-04-25T01:30:04.777Z,12.62
2023-04-25T01:33:09.004Z,12.52
2023-04-25T01:36:11.563Z,12.31
2023-04-25T01:39:14.060Z,12.31
2023-04-25T01:42:16.130Z,12.30
2023-04-25T01:45:18.686Z,12.38
2023-04-25T01:48:20.698Z,12.39
2023-04-25T01:51:23.814Z,12.41
2023-04-25T01:54:25.852Z,12.25
2023-04-25T01:57:27.795Z,12.36
2023-04-25T02:00:30.616Z,12.39
2023-04-25T02:03:33.532Z,12.22
2023-04-25T02:06:36.530Z,12.33
2023-04-25T02:09:38.546Z,12.25
2023-04-25T02:12:42.328Z,12.26
2023-04-25T02:15:59.012Z,12.21
2023-04-25T02:19:01.311Z,12.17
2023-04-25T02:22:03.511Z,12.23
2023-04-25T02:25:05.864Z,12.21
2023-04-25T02:28:08.989Z,12.20
2023-04-25T02:31:11.799Z,12.09
2023-04-25T02:34:13.791Z,12.04
2023-04-25T02:37:15.685Z,12.14
2023-04-25T02:40:20.741Z,12.24
2023-04-25T02:43:23.077Z,12.16
2023-04-25T02:46:38.192Z,12.13
2023-04-25T02:49:41.500Z,12.13
2023-04-25T02:52:44.145Z,12.10
2023-04-25T02:55:53.736Z,12.09
2023-04-25T02:58:56.037Z,12.15
2023-04-25T03:01:58.100Z,12.01
2023-04-25T03:05:00.323Z,12.06
2023-04-25T03:08:03.972Z,12.14
2023-04-25T03:11:08.091Z,12.25
2023-04-25T03:14:11.069Z,12.27
2023-04-25T03:17:12.960Z,12.35
2023-04-25T03:20:14.874Z,12.32
2023-04-25T03:23:16.818Z,12.36
2023-04-25T03:26:18.834Z,12.28
2023-04-25T03:29:25.500Z,12.28
2023-04-25T03:32:28.515Z,12.27
2023-04-25T03:35:30.547Z,12.25
2023-04-25T03:38:32.644Z,12.32
2023-04-25T03:41:34.893Z,12.39
2023-04-25T03:44:40.975Z,12.32
2023-04-25T03:47:43.173Z,12.36
2023-04-25T03:50:45.326Z,12.30
2023-04-25T03:53:49.463Z,12.33
2023-04-25T03:56:54.303Z,12.40
2023-04-25T03:59:58.798Z,12.41
2023-04-25T04:03:02.611Z,12.49
2023-04-25T04:06:06.630Z,12.52
2023-04-25T04:09:12.371Z,12.36
2023-04-25T04:12:17.000Z,12.30
2023-04-25T04:15:19.143Z,12.35
2023-04-25T04:18:22.478Z,12.30
2023-04-25T04:21:24.823Z,12.48
2023-04-25T04:24:26.849Z,12.55
2023-04-25T04:27:34.293Z,12.35
2023-04-25T04:30:53.635Z,12.39
2023-04-25T04:33:55.836Z,12.50
2023-04-25T04:36:58.271Z,12.46
2023-04-25T04:40:06.259Z,12.61
2023-04-25T04:43:31.083Z,12.62
2023-04-25T04:46:47.877Z,12.64
2023-04-25T04:50:17.351Z,12.72
2023-04-25T04:53:38.103Z,12.79
2023-04-25T04:57:10.938Z,12.91
2023-04-25T05:00:27.887Z,12.97
2023-04-25T05:03:47.912Z,12.99
2023-04-25T05:07:05.502Z,13.01
2023-04-25T05:10:08.954Z,12.99
2023-04-25T05:13:39.868Z,13.00
2023-04-25T05:16:54.950Z,12.98
2023-04-25T05:20:19.491Z,12.98
2023-04-25T05:23:36.416Z,12.91
2023-04-25T05:26:59.414Z,13.04
2023-04-25T05:30:19.237Z,13.00
2023-04-25T05:33:44.088Z,12.98
2023-04-25T05:36:49.362Z,12.99
2023-04-25T05:39:54.798Z,12.98
2023-04-25T05:43:25.933Z,13.00
2023-04-25T05:46:39.117Z,12.98
2023-04-25T05:50:03.437Z,13.01
2023-04-25T05:53:17.825Z,12.96
2023-04-25T05:56:19.928Z,13.05
2023-04-25T05:59:24.079Z,13.05
2023-04-25T06:02:27.557Z,13.11
2023-04-25T06:05:29.820Z,13.13
2023-04-25T06:08:51.936Z,13.11
2023-04-25T06:11:53.872Z,13.15
2023-04-25T06:14:55.851Z,13.19
2023-04-25T06:17:57.922Z,13.18
2023-04-25T06:21:00.200Z,13.15
2023-04-25T06:24:02.133Z,13.13
2023-04-25T06:27:04.626Z,13.08
2023-04-25T06:30:07.486Z,13.15
2023-04-25T06:33:10.294Z,13.23
2023-04-25T06:36:13.819Z,13.29
2023-04-25T06:39:17.446Z,13.34
2023-04-25T06:42:19.393Z,13.45
2023-04-25T06:45:27.551Z,13.52
2023-04-25T06:48:29.529Z,13.57
2023-04-25T06:51:31.692Z,13.59
2023-04-25T06:54:33.632Z,13.62
2023-04-25T06:57:41.885Z,13.67
2023-04-25T07:01:04.352Z,13.68
2023-04-25T07:04:07.232Z,13.70
2023-04-25T07:07:11.906Z,13.67
2023-04-25T07:10:22.384Z,13.47
2023-04-25T07:13:24.479Z,13.09
2023-04-25T07:16:26.623Z,13.12
2023-04-25T07:19:30.791Z,12.94
2023-04-25T07:22:35.669Z,13.08
2023-04-25T07:25:39.388Z,13.12
2023-04-25T07:28:42.249Z,13.00
2023-04-25T07:31:44.183Z,13.06
2023-04-25T07:34:46.241Z,12.58
2023-04-25T07:37:48.563Z,12.39
2023-04-25T07:40:53.977Z,11.96
2023-04-25T07:43:56.927Z,11.68
2023-04-25T07:47:39.628Z,11.45
2023-04-25T07:50:42.503Z,11.19
2023-04-25T07:53:45.247Z,11.40
2023-04-25T07:56:53.304Z,11.37
2023-04-25T07:59:58.794Z,11.66
2023-04-25T08:03:42.363Z,11.44
2023-04-25T08:07:51.294Z,11.39
2023-04-25T08:11:15.419Z,11.56
2023-04-25T08:14:17.410Z,11.81
2023-04-25T08:17:20.954Z,11.50
2023-04-25T08:20:23.443Z,11.56
2023-04-25T08:23:27.947Z,11.60
2023-04-25T08:26:44.756Z,11.44
2023-04-25T08:29:51.966Z,11.04
2023-04-25T08:33:14.094Z,11.06
2023-04-25T08:36:39.129Z,10.91
2023-04-25T08:39:53.371Z,10.80
2023-04-25T08:43:15.998Z,10.84
2023-04-25T08:46:21.205Z,10.74
2023-04-25T08:49:48.154Z,10.76
2023-04-25T08:52:53.871Z,10.59
2023-04-25T08:55:57.854Z,10.66
2023-04-25T08:59:02.073Z,10.63
2023-04-25T09:02:07.900Z,10.40
2023-04-25T09:14:26.941Z,10.23
2023-04-25T09:17:41.656Z,10.13
2023-04-25T09:21:00.949Z,10.24
2023-04-25T09:24:08.367Z,10.30
2023-04-25T09:27:12.696Z,10.01
2023-04-25T09:30:17.218Z,10.21
2023-04-25T09:33:59.895Z,10.12
2023-04-25T09:37:06.649Z,10.18
2023-04-25T09:40:31.433Z,10.19
2023-04-25T09:43:47.018Z,10.24
2023-04-25T09:46:54.801Z,10.34
2023-04-25T09:49:59.979Z,10.13
2023-04-25T09:53:06.626Z,10.28
2023-04-25T09:56:36.924Z,10.31
2023-04-25T09:59:45.219Z,10.39
2023-04-25T10:02:49.653Z,10.36
2023-04-25T10:06:24.109Z,10.39
2023-04-25T10:09:27.384Z,10.18
2023-04-25T10:12:29.745Z,10.07
2023-04-25T10:15:34.040Z,10.14
2023-04-25T10:18:36.250Z,10.11
2023-04-25T10:21:47.228Z,10.14
2023-04-25T10:24:51.890Z,10.03
2023-04-25T10:27:54.724Z,10.09
2023-04-25T10:31:05.693Z,10.10
2023-04-25T10:34:07.803Z,10.08
2023-04-25T10:37:31.607Z,9.97
2023-04-25T10:41:10.074Z,10.11
2023-04-25T10:44:11.951Z,10.11
2023-04-25T10:47:14.033Z,10.30
2023-04-25T10:50:19.393Z,9.87
2023-04-25T10:53:26.154Z,9.85
2023-04-25T10:56:48.227Z,10.09
2023-04-25T10:59:50.163Z,10.06
2023-04-25T11:03:00.055Z,10.09
2023-04-25T11:06:03.853Z,9.96
2023-04-25T11:09:14.153Z,10.28
2023-04-25T11:12:17.410Z,10.25
2023-04-25T11:15:19.573Z,10.38
2023-04-25T11:18:21.785Z,10.38
2023-04-25T11:31:45.025Z,10.09
2023-04-25T11:34:47.899Z,10.17
2023-04-25T11:37:50.675Z,10.30
2023-04-25T11:40:56.238Z,10.12
2023-04-25T11:43:58.868Z,10.53
2023-04-25T11:47:02.910Z,10.53
2023-04-25T11:50:06.735Z,10.62
2023-04-25T11:53:09.510Z,10.76
2023-04-25T11:56:14.901Z,10.57
2023-04-25T11:59:17.789Z,10.56
2023-04-25T12:02:27.792Z,10.63
2023-04-25T12:05:34.826Z,10.63
2023-04-25T12:08:38.058Z,10.63
2023-04-25T12:11:44.835Z,10.81
2023-04-25T12:14:51.941Z,10.82
2023-04-25T12:17:56.170Z,10.62
2023-04-25T12:20:59.251Z,10.59
2023-04-25T12:24:12.271Z,10.60
2023-04-25T12:27:19.993Z,10.54
2023-04-25T12:30:22.546Z,10.56
2023-04-25T12:33:25.750Z,10.69
2023-04-25T12:36:27.906Z,10.77
2023-04-25T12:40:09.914Z,10.79
2023-04-25T12:44:11.806Z,10.84
2023-04-25T12:47:36.284Z,10.72
2023-04-25T12:50:38.362Z,10.71
2023-04-25T12:53:41.748Z,10.73
2023-04-25T12:56:43.781Z,10.66
2023-04-25T12:59:46.041Z,10.65
2023-04-25T13:02:48.350Z,10.69
2023-04-25T13:06:10.247Z,10.94
2023-04-25T13:09:32.041Z,10.82
2023-04-25T13:12:34.366Z,10.68
2023-04-25T13:15:36.538Z,10.63
2023-04-25T13:18:38.488Z,10.39
2023-04-25T13:21:40.513Z,10.52
2023-04-25T13:24:42.551Z,10.38
2023-04-25T13:27:45.817Z,10.16
2023-04-25T13:30:49.044Z,10.32
2023-04-25T13:33:51.559Z,10.59
2023-04-25T13:36:53.627Z,10.57
2023-04-25T13:39:56.427Z,10.65
2023-04-25T13:42:58.759Z,10.66
2023-04-25T13:46:00.751Z,10.50
2023-04-25T13:49:11.443Z,10.76
2023-04-25T13:52:14.900Z,10.62
2023-04-25T13:55:16.881Z,10.67
2023-04-25T13:58:59.159Z,10.52
2023-04-25T14:03:00.899Z,10.63
2023-04-25T14:06:24.892Z,10.70
2023-04-25T14:09:28.279Z,10.40
2023-04-25T14:12:30.078Z,10.69
2023-04-25T14:15:35.693Z,10.72
2023-04-25T14:18:37.893Z,10.76
2023-04-25T14:21:40.829Z,10.70
2023-04-25T14:24:43.750Z,10.82
2023-04-25T14:27:50.547Z,10.83
2023-04-25T14:30:52.561Z,10.82
2023-04-25T14:33:56.985Z,10.81
2023-04-25T14:37:00.881Z,10.82
2023-04-25T14:40:04.214Z,10.99
2023-04-25T14:43:06.179Z,10.97
2023-04-25T14:46:08.296Z,11.03
2023-04-25T14:49:10.628Z,10.98
2023-04-25T14:52:12.661Z,10.86
2023-04-25T14:55:15.180Z,10.64
2023-04-25T14:58:17.204Z,10.67
2023-04-25T15:01:21.786Z,10.74
2023-04-25T15:04:24.304Z,10.74
2023-04-25T15:07:26.871Z,10.59
2023-04-25T15:10:29.577Z,10.80
2023-04-25T15:13:32.356Z,10.73
2023-04-25T15:16:34.504Z,10.80
2023-04-25T15:19:37.700Z,10.77
2023-04-25T15:22:41.940Z,10.69
2023-04-25T15:25:44.135Z,10.39
2023-04-25T15:28:46.318Z,10.74
2023-04-25T15:31:48.486Z,10.72
2023-04-25T15:34:51.129Z,10.71
2023-04-25T15:37:53.131Z,10.79
2023-04-25T15:40:55.035Z,10.67
2023-04-25T15:43:57.105Z,10.63
2023-04-25T15:46:59.036Z,10.55
2023-04-25T15:50:01.355Z,10.51
2023-04-25T15:53:05.030Z,10.48
2023-04-25T15:56:08.391Z,10.38
2023-04-25T15:59:10.462Z,10.22
2023-04-25T16:02:14.502Z,10.27
2023-04-25T16:05:17.463Z,10.30
2023-04-25T16:08:19.478Z,10.23
2023-04-25T16:11:21.530Z,10.26
2023-04-25T16:14:23.810Z,10.16
2023-04-25T16:17:28.143Z,10.21
2023-04-25T16:20:30.304Z,10.21
2023-04-25T16:23:52.255Z,10.06
2023-04-25T16:27:14.788Z,10.11
2023-04-25T16:30:36.603Z,10.21
2023-04-25T16:33:58.562Z,10.15
2023-04-25T16:37:01.396Z,10.18
2023-04-25T16:40:03.745Z,10.09
2023-04-25T16:43:07.385Z,10.07
2023-04-25T16:46:09.387Z,10.02
2023-04-25T16:49:11.573Z,10.05
2023-04-25T16:52:13.590Z,10.11
2023-04-25T16:55:15.606Z,10.04
2023-04-25T16:58:17.555Z,10.13
2023-04-25T17:01:22.938Z,10.00
2023-04-25T17:04:25.339Z,9.95
2023-04-25T17:07:27.981Z,10.01
2023-04-25T17:10:30.749Z,9.67
2023-04-25T17:13:36.532Z,9.57
2023-04-25T17:16:41.463Z,9.59
2023-04-25T17:19:43.443Z,9.74
2023-04-25T17:22:45.430Z,9.75
2023-04-25T17:25:47.441Z,9.62
2023-04-25T17:28:49.831Z,9.68
2023-04-25T17:31:53.590Z,9.68
2023-04-25T17:34:56.789Z,9.72
2023-04-25T17:37:59.790Z,9.72
2023-04-25T17:41:02.654Z,9.33
2023-04-25T17:44:04.719Z,9.35
2023-04-25T17:47:08.464Z,9.38
2023-04-25T17:50:10.820Z,9.47
2023-04-25T17:53:13.323Z,9.42
2023-04-25T17:56:26.633Z,9.35
2023-04-25T17:59:29.281Z,9.58
2023-04-25T18:02:31.645Z,9.38
2023-04-25T18:05:35.874Z,9.43
2023-04-25T18:08:38.002Z,9.32
2023-04-25T18:11:39.963Z,9.11
2023-04-25T18:14:41.914Z,9.15
2023-04-25T18:17:44.126Z,9.01
2023-04-25T18:20:47.320Z,9.13
2023-04-25T18:23:50.092Z,9.14
2023-04-25T18:26:53.553Z,9.13
2023-04-25T18:29:55.840Z,9.03
2023-04-25T18:32:58.859Z,9.00
2023-04-25T18:36:00.981Z,8.93
2023-04-25T18:39:21.321Z,8.92
2023-04-25T18:42:24.407Z,8.76
2023-04-25T18:45:26.424Z,8.77
2023-04-25T18:48:29.093Z,8.64
2023-04-25T18:51:31.585Z,8.52
2023-04-25T18:54:34.294Z,8.36
2023-04-25T18:57:36.770Z,8.37
2023-04-25T19:00:39.069Z,8.39
2023-04-25T19:03:41.462Z,8.44
2023-04-25T19:06:43.807Z,8.38
2023-04-25T19:09:47.165Z,8.46
2023-04-25T19:12:49.480Z,8.20
2023-04-25T19:15:51.628Z,8.36
2023-04-25T19:18:55.340Z,8.41
2023-04-25T19:21:59.025Z,8.32
2023-04-25T19:25:10.787Z,8.30
2023-04-25T19:28:13.992Z,8.16
2023-04-25T19:31:16.221Z,8.06
2023-04-25T19:34:18.464Z,8.26
2023-04-25T19:37:20.664Z,8.17
2023-04-25T19:40:23.533Z,8.23
2023-04-25T19:43:26.184Z,7.95
2023-04-25T19:46:28.574Z,7.97
2023-04-25T19:49:31.114Z,7.98
2023-04-25T19:52:34.559Z,7.89
2023-04-25T19:55:36.688Z,7.93
2023-04-25T19:58:39.358Z,8.00
2023-04-25T20:01:41.670Z,7.99
2023-04-25T20:04:43.927Z,7.93
2023-04-25T20:07:46.002Z,7.95
2023-04-25T20:10:49.575Z,7.73
2023-04-25T20:13:51.684Z,7.75
2023-04-25T20:16:54.002Z,7.87
2023-04-25T20:19:56.347Z,7.83
2023-04-25T20:22:58.578Z,7.77
2023-04-25T20:26:00.427Z,7.77
2023-04-25T20:29:02.343Z,7.84
2023-04-25T20:32:04.604Z,7.90
2023-04-25T20:35:09.237Z,7.93
2023-04-25T20:38:12.127Z,7.71
2023-04-25T20:41:14.272Z,7.77
2023-04-25T20:44:16.265Z,7.75
2023-04-25T20:47:18.277Z,7.79
2023-04-25T20:50:20.839Z,7.80
2023-04-25T20:53:23.311Z,7.71
2023-04-25T20:56:25.346Z,7.65
2023-04-25T20:59:27.520Z,7.55
2023-04-25T21:02:29.821Z,7.68
2023-04-25T21:05:32.204Z,7.77
2023-04-25T21:08:35.096Z,7.68
2023-04-25T21:11:38.416Z,7.67
2023-04-25T21:14:40.439Z,7.65
2023-04-25T21:17:42.415Z,7.69
2023-04-25T21:20:44.470Z,7.76
2023-04-25T21:23:46.409Z,7.80
2023-04-25T21:26:48.529Z,7.67
2023-04-25T21:29:50.514Z,7.82
2023-04-25T21:32:52.919Z,7.76
2023-04-25T21:35:54.878Z,7.75
2023-04-25T21:38:56.869Z,7.72
2023-04-25T21:41:58.809Z,7.50
2023-04-25T21:45:02.522Z,7.51
2023-04-25T21:48:05.304Z,7.58
2023-04-25T21:51:07.330Z,7.40
2023-04-25T21:54:09.253Z,7.64
2023-04-25T21:57:11.161Z,7.72
2023-04-25T22:00:24.858Z,7.80
2023-04-25T22:03:27.226Z,7.66
2023-04-25T22:06:29.338Z,7.73
2023-04-25T22:09:34.760Z,7.70
2023-04-25T22:12:43.136Z,7.76
2023-04-25T22:15:45.037Z,7.73
2023-04-25T22:18:48.262Z,7.83
2023-04-25T22:21:50.209Z,7.81
2023-04-25T22:24:52.112Z,7.66
2023-04-25T22:27:55.431Z,7.54
2023-04-25T22:30:57.449Z,7.52
2023-04-25T22:33:59.911Z,7.47
2023-04-25T22:37:02.092Z,7.50
2023-04-25T22:40:09.265Z,7.49
2023-04-25T22:43:11.231Z,7.63
2023-04-25T22:46:16.945Z,7.47
2023-04-25T22:49:19.052Z,7.48
2023-04-25T22:52:20.979Z,7.39
2023-04-25T22:55:22.989Z,7.49
2023-04-25T22:58:24.916Z,7.59
2023-04-25T23:01:28.088Z,7.61
2023-04-25T23:04:30.704Z,7.76
2023-04-25T23:07:34.035Z,7.69
2023-04-25T23:10:37.014Z,7.69
2023-04-25T23:13:38.993Z,7.65
2023-04-25T23:16:40.935Z,7.46
2023-04-25T23:19:43.211Z,7.56
2023-04-25T23:22:45.064Z,7.52
2023-04-25T23:25:47.129Z,7.66
2023-04-25T23:28:49.088Z,7.71
2023-04-25T23:31:51.077Z,7.73
2023-04-25T23:34:53.432Z,7.71
2023-04-25T23:37:55.728Z,7.77
2023-04-25T23:40:58.190Z,7.77
2023-04-25T23:44:00.603Z,7.86
2023-04-25T23:47:02.487Z,8.06
2023-04-25T23:50:11.753Z,8.01
2023-04-25T23:53:14.320Z,8.04
2023-04-25T23:56:16.522Z,8.00
2023-04-25T23:59:18.326Z,7.92
